sensor_id;sensor_type;location;lat;lon;timestamp;temperature;humidity
16140;DHT22;8175;49.326;12.690;2022-11-15T00:01:38;4.60;99.90
16140;DHT22;8175;49.326;12.690;2022-11-15T00:04:04;4.50;99.90
16140;DHT22;8175;49.326;12.690;2022-11-15T00:06:30;4.60;99.90
16140;DHT22;8175;49.326;12.690;2022-11-15T00:08:58;4.60;99.90
16140;DHT22;8175;49.326;12.690;2022-11-15T00:11:25;4.50;99.90
16140;DHT22;8175;49.326;12.690;2022-11-15T00:13:50;4.50;99.90
16140;DHT22;8175;49.326;12.690;2022-11-15T00:16:17;4.50;99.90
16140;DHT22;8175;49.326;12.690;2022-11-15T00:18:43;4.50;99.90
16140;DHT22;8175;49.326;12.690;2022-11-15T00:21:12;4.50;99.90
16140;DHT22;8175;49.326;12.690;2022-11-15T00:23:38;4.60;99.90
16140;DHT22;8175;49.326;12.690;2022-11-15T00:26:04;4.50;99.90
16140;DHT22;8175;49.326;12.690;2022-11-15T00:28:30;4.60;99.90
16140;DHT22;8175;49.326;12.690;2022-11-15T00:31:03;4.60;99.90
16140;DHT22;8175;49.326;12.690;2022-11-15T00:33:29;4.60;99.90
16140;DHT22;8175;49.326;12.690;2022-11-15T00:36:06;4.50;99.90
16140;DHT22;8175;49.326;12.690;2022-11-15T00:38:35;4.30;99.90
16140;DHT22;8175;49.326;12.690;2022-11-15T00:41:02;4.20;99.90
16140;DHT22;8175;49.326;12.690;2022-11-15T00:43:28;4.20;99.90
16140;DHT22;8175;49.326;12.690;2022-11-15T00:45:54;4.10;99.90
16140;DHT22;8175;49.326;12.690;2022-11-15T00:48:20;4.10;99.90
16140;DHT22;8175;49.326;12.690;2022-11-15T00:50:46;4.20;99.90
16140;DHT22;8175;49.326;12.690;2022-11-15T00:53:11;4.30;99.90
16140;DHT22;8175;49.326;12.690;2022-11-15T00:55:37;4.30;99.90
16140;DHT22;8175;49.326;12.690;2022-11-15T00:58:03;4.30;99.90
16140;DHT22;8175;49.326;12.690;2022-11-15T01:00:28;4.30;99.90
16140;DHT22;8175;49.326;12.690;2022-11-15T01:02:54;4.30;99.90
16140;DHT22;8175;49.326;12.690;2022-11-15T01:05:20;4.40;99.90
16140;DHT22;8175;49.326;12.690;2022-11-15T01:07:46;4.40;99.90
16140;DHT22;8175;49.326;12.690;2022-11-15T01:10:11;4.40;99.90
16140;DHT22;8175;49.326;12.690;2022-11-15T01:12:37;4.20;99.90
16140;DHT22;8175;49.326;12.690;2022-11-15T01:15:04;3.90;99.90
16140;DHT22;8175;49.326;12.690;2022-11-15T01:17:30;3.80;99.90
16140;DHT22;8175;49.326;12.690;2022-11-15T01:19:56;3.70;99.90
16140;DHT22;8175;49.326;12.690;2022-11-15T01:22:22;3.60;99.90
16140;DHT22;8175;49.326;12.690;2022-11-15T01:24:50;3.60;99.90
16140;DHT22;8175;49.326;12.690;2022-11-15T01:27:16;3.80;99.90
16140;DHT22;8175;49.326;12.690;2022-11-15T01:29:42;3.70;99.90
16140;DHT22;8175;49.326;12.690;2022-11-15T01:32:07;3.70;99.90
16140;DHT22;8175;49.326;12.690;2022-11-15T01:34:33;3.60;99.90
16140;DHT22;8175;49.326;12.690;2022-11-15T01:36:59;3.60;99.90
16140;DHT22;8175;49.326;12.690;2022-11-15T01:39:24;3.70;99.90
16140;DHT22;8175;49.326;12.690;2022-11-15T01:41:50;3.70;99.90
16140;DHT22;8175;49.326;12.690;2022-11-15T01:44:40;3.70;99.90
16140;DHT22;8175;49.326;12.690;2022-11-15T01:47:13;3.60;99.90
16140;DHT22;8175;49.326;12.690;2022-11-15T01:50:06;3.60;99.90
16140;DHT22;8175;49.326;12.690;2022-11-15T01:52:32;3.50;99.90
16140;DHT22;8175;49.326;12.690;2022-11-15T01:57:31;3.30;99.90
16140;DHT22;8175;49.326;12.690;2022-11-15T01:59:57;3.30;99.90
16140;DHT22;8175;49.326;12.690;2022-11-15T02:02:23;3.20;99.90
16140;DHT22;8175;49.326;12.690;2022-11-15T02:04:49;3.20;99.90
16140;DHT22;8175;49.326;12.690;2022-11-15T02:07:17;3.20;99.90
16140;DHT22;8175;49.326;12.690;2022-11-15T02:09:44;3.50;99.90
16140;DHT22;8175;49.326;12.690;2022-11-15T02:12:10;3.50;99.90
16140;DHT22;8175;49.326;12.690;2022-11-15T02:14:39;3.70;99.90
16140;DHT22;8175;49.326;12.690;2022-11-15T02:17:21;3.70;99.90
16140;DHT22;8175;49.326;12.690;2022-11-15T02:20:00;3.70;99.90
16140;DHT22;8175;49.326;12.690;2022-11-15T02:22:57;3.60;99.90
16140;DHT22;8175;49.326;12.690;2022-11-15T02:28:45;3.50;99.90
16140;DHT22;8175;49.326;12.690;2022-11-15T02:37:15;3.50;99.90
16140;DHT22;8175;49.326;12.690;2022-11-15T02:39:49;3.60;99.90
16140;DHT22;8175;49.326;12.690;2022-11-15T02:42:23;3.60;99.90
16140;DHT22;8175;49.326;12.690;2022-11-15T02:45:12;3.60;99.90
16140;DHT22;8175;49.326;12.690;2022-11-15T02:47:44;3.50;99.90
16140;DHT22;8175;49.326;12.690;2022-11-15T02:50:13;3.40;99.90
16140;DHT22;8175;49.326;12.690;2022-11-15T02:52:45;3.30;99.90
16140;DHT22;8175;49.326;12.690;2022-11-15T02:55:34;3.40;99.90
16140;DHT22;8175;49.326;12.690;2022-11-15T03:06:42;3.70;99.90
16140;DHT22;8175;49.326;12.690;2022-11-15T03:09:30;3.70;99.90
16140;DHT22;8175;49.326;12.690;2022-11-15T03:12:07;3.60;99.90
16140;DHT22;8175;49.326;12.690;2022-11-15T03:14:41;3.60;99.90
16140;DHT22;8175;49.326;12.690;2022-11-15T03:17:27;3.50;99.90
16140;DHT22;8175;49.326;12.690;2022-11-15T03:19:56;3.60;99.90
16140;DHT22;8175;49.326;12.690;2022-11-15T03:22:26;3.60;99.90
16140;DHT22;8175;49.326;12.690;2022-11-15T03:25:00;3.70;99.90
16140;DHT22;8175;49.326;12.690;2022-11-15T03:27:31;3.70;99.90
16140;DHT22;8175;49.326;12.690;2022-11-15T03:30:01;3.60;99.90
16140;DHT22;8175;49.326;12.690;2022-11-15T03:32:30;3.60;99.90
16140;DHT22;8175;49.326;12.690;2022-11-15T03:37:42;3.80;99.90
16140;DHT22;8175;49.326;12.690;2022-11-15T03:40:10;3.90;99.90
16140;DHT22;8175;49.326;12.690;2022-11-15T03:43:04;3.90;99.90
16140;DHT22;8175;49.326;12.690;2022-11-15T03:45:37;3.80;99.90
16140;DHT22;8175;49.326;12.690;2022-11-15T03:48:14;3.80;99.90
16140;DHT22;8175;49.326;12.690;2022-11-15T03:50:42;3.80;99.90
16140;DHT22;8175;49.326;12.690;2022-11-15T03:53:09;3.70;99.90
16140;DHT22;8175;49.326;12.690;2022-11-15T03:55:35;3.60;99.90
16140;DHT22;8175;49.326;12.690;2022-11-15T03:58:01;3.60;99.90
16140;DHT22;8175;49.326;12.690;2022-11-15T04:00:28;3.60;99.90
16140;DHT22;8175;49.326;12.690;2022-11-15T04:02:54;3.70;99.90
16140;DHT22;8175;49.326;12.690;2022-11-15T04:05:19;3.70;99.90
16140;DHT22;8175;49.326;12.690;2022-11-15T04:07:45;3.60;99.90
16140;DHT22;8175;49.326;12.690;2022-11-15T04:10:11;3.60;99.90
16140;DHT22;8175;49.326;12.690;2022-11-15T04:12:40;3.70;99.90
16140;DHT22;8175;49.326;12.690;2022-11-15T04:15:13;3.60;99.90
16140;DHT22;8175;49.326;12.690;2022-11-15T04:17:42;3.50;99.90
16140;DHT22;8175;49.326;12.690;2022-11-15T04:20:33;3.50;99.90
16140;DHT22;8175;49.326;12.690;2022-11-15T04:23:19;3.40;99.90
16140;DHT22;8175;49.326;12.690;2022-11-15T04:28:33;3.20;99.90
16140;DHT22;8175;49.326;12.690;2022-11-15T04:30:59;3.30;99.90
16140;DHT22;8175;49.326;12.690;2022-11-15T04:33:25;3.40;99.90
16140;DHT22;8175;49.326;12.690;2022-11-15T04:35:51;3.50;99.90
16140;DHT22;8175;49.326;12.690;2022-11-15T04:38:37;3.40;99.90
16140;DHT22;8175;49.326;12.690;2022-11-15T04:41:03;3.30;99.90
16140;DHT22;8175;49.326;12.690;2022-11-15T04:43:29;3.30;99.90
16140;DHT22;8175;49.326;12.690;2022-11-15T04:45:55;3.20;99.90
16140;DHT22;8175;49.326;12.690;2022-11-15T04:48:20;3.10;99.90
16140;DHT22;8175;49.326;12.690;2022-11-15T04:50:49;3.10;99.90
16140;DHT22;8175;49.326;12.690;2022-11-15T04:53:15;3.20;99.90
16140;DHT22;8175;49.326;12.690;2022-11-15T04:55:45;3.20;99.90
16140;DHT22;8175;49.326;12.690;2022-11-15T04:58:10;3.30;99.90
16140;DHT22;8175;49.326;12.690;2022-11-15T05:00:36;3.40;99.90
16140;DHT22;8175;49.326;12.690;2022-11-15T05:03:02;3.40;99.90
16140;DHT22;8175;49.326;12.690;2022-11-15T05:05:45;3.30;99.90
16140;DHT22;8175;49.326;12.690;2022-11-15T05:08:11;3.30;99.90
16140;DHT22;8175;49.326;12.690;2022-11-15T05:10:37;3.40;99.90
16140;DHT22;8175;49.326;12.690;2022-11-15T05:13:02;3.40;99.90
16140;DHT22;8175;49.326;12.690;2022-11-15T05:15:28;3.30;99.90
16140;DHT22;8175;49.326;12.690;2022-11-15T05:17:58;3.30;99.90
16140;DHT22;8175;49.326;12.690;2022-11-15T05:20:24;3.30;99.90
16140;DHT22;8175;49.326;12.690;2022-11-15T05:22:50;3.30;99.90
16140;DHT22;8175;49.326;12.690;2022-11-15T05:25:15;3.30;99.90
16140;DHT22;8175;49.326;12.690;2022-11-15T05:27:41;3.30;99.90
16140;DHT22;8175;49.326;12.690;2022-11-15T05:30:07;3.20;99.90
16140;DHT22;8175;49.326;12.690;2022-11-15T05:32:33;3.20;99.90
16140;DHT22;8175;49.326;12.690;2022-11-15T05:34:59;3.10;99.90
16140;DHT22;8175;49.326;12.690;2022-11-15T05:37:24;3.10;99.90
16140;DHT22;8175;49.326;12.690;2022-11-15T05:39:50;3.10;99.90
16140;DHT22;8175;49.326;12.690;2022-11-15T05:42:16;2.90;99.90
16140;DHT22;8175;49.326;12.690;2022-11-15T05:44:46;2.90;99.90
16140;DHT22;8175;49.326;12.690;2022-11-15T05:47:16;2.90;99.90
16140;DHT22;8175;49.326;12.690;2022-11-15T05:49:44;3.00;99.90
16140;DHT22;8175;49.326;12.690;2022-11-15T05:52:13;3.00;99.90
16140;DHT22;8175;49.326;12.690;2022-11-15T05:54:39;3.20;99.90
16140;DHT22;8175;49.326;12.690;2022-11-15T05:57:05;3.20;99.90
16140;DHT22;8175;49.326;12.690;2022-11-15T05:59:32;3.20;99.90
16140;DHT22;8175;49.326;12.690;2022-11-15T06:01:59;3.10;99.90
16140;DHT22;8175;49.326;12.690;2022-11-15T06:04:24;3.20;99.90
16140;DHT22;8175;49.326;12.690;2022-11-15T06:06:50;3.40;99.90
16140;DHT22;8175;49.326;12.690;2022-11-15T06:09:16;3.60;99.90
16140;DHT22;8175;49.326;12.690;2022-11-15T06:11:41;3.70;99.90
16140;DHT22;8175;49.326;12.690;2022-11-15T06:14:07;3.90;99.90
16140;DHT22;8175;49.326;12.690;2022-11-15T06:16:33;3.90;99.90
16140;DHT22;8175;49.326;12.690;2022-11-15T06:18:58;4.00;99.90
16140;DHT22;8175;49.326;12.690;2022-11-15T06:21:24;3.90;99.90
16140;DHT22;8175;49.326;12.690;2022-11-15T06:23:53;3.80;99.90
16140;DHT22;8175;49.326;12.690;2022-11-15T06:26:18;3.90;99.90
16140;DHT22;8175;49.326;12.690;2022-11-15T06:28:44;3.90;99.90
16140;DHT22;8175;49.326;12.690;2022-11-15T06:31:10;3.80;99.90
16140;DHT22;8175;49.326;12.690;2022-11-15T06:33:37;3.70;99.90
16140;DHT22;8175;49.326;12.690;2022-11-15T06:36:04;3.70;99.90
16140;DHT22;8175;49.326;12.690;2022-11-15T06:38:30;3.80;99.90
16140;DHT22;8175;49.326;12.690;2022-11-15T06:41:04;4.00;99.90
16140;DHT22;8175;49.326;12.690;2022-11-15T06:43:30;4.10;99.90
16140;DHT22;8175;49.326;12.690;2022-11-15T06:45:58;4.10;99.90
16140;DHT22;8175;49.326;12.690;2022-11-15T06:48:24;4.20;99.90
16140;DHT22;8175;49.326;12.690;2022-11-15T06:50:54;4.10;99.90
16140;DHT22;8175;49.326;12.690;2022-11-15T06:53:21;4.10;99.90
16140;DHT22;8175;49.326;12.690;2022-11-15T06:55:46;4.00;99.90
16140;DHT22;8175;49.326;12.690;2022-11-15T06:58:12;4.00;99.90
16140;DHT22;8175;49.326;12.690;2022-11-15T07:00:38;3.80;99.90
16140;DHT22;8175;49.326;12.690;2022-11-15T07:03:04;3.60;99.90
16140;DHT22;8175;49.326;12.690;2022-11-15T07:05:31;3.50;99.90
16140;DHT22;8175;49.326;12.690;2022-11-15T07:07:57;3.30;99.90
16140;DHT22;8175;49.326;12.690;2022-11-15T07:10:24;3.10;99.90
16140;DHT22;8175;49.326;12.690;2022-11-15T07:12:51;3.00;99.90
16140;DHT22;8175;49.326;12.690;2022-11-15T07:15:17;2.80;99.90
16140;DHT22;8175;49.326;12.690;2022-11-15T07:17:43;2.80;99.90
16140;DHT22;8175;49.326;12.690;2022-11-15T07:20:10;2.70;99.90
16140;DHT22;8175;49.326;12.690;2022-11-15T07:22:37;2.50;99.90
16140;DHT22;8175;49.326;12.690;2022-11-15T07:25:03;2.40;99.90
16140;DHT22;8175;49.326;12.690;2022-11-15T07:27:28;2.30;99.90
16140;DHT22;8175;49.326;12.690;2022-11-15T07:29:54;2.20;99.90
16140;DHT22;8175;49.326;12.690;2022-11-15T07:32:20;2.20;99.90
16140;DHT22;8175;49.326;12.690;2022-11-15T07:34:45;2.10;99.90
16140;DHT22;8175;49.326;12.690;2022-11-15T07:37:11;2.10;99.90
16140;DHT22;8175;49.326;12.690;2022-11-15T07:39:37;2.20;99.90
16140;DHT22;8175;49.326;12.690;2022-11-15T07:42:03;2.40;99.90
16140;DHT22;8175;49.326;12.690;2022-11-15T07:44:47;2.60;99.90
16140;DHT22;8175;49.326;12.690;2022-11-15T07:47:12;2.90;99.90
16140;DHT22;8175;49.326;12.690;2022-11-15T07:49:38;3.30;99.90
16140;DHT22;8175;49.326;12.690;2022-11-15T07:52:04;3.80;99.90
16140;DHT22;8175;49.326;12.690;2022-11-15T07:54:29;4.20;99.90
16140;DHT22;8175;49.326;12.690;2022-11-15T07:56:55;4.10;99.90
16140;DHT22;8175;49.326;12.690;2022-11-15T07:59:21;4.10;99.90
16140;DHT22;8175;49.326;12.690;2022-11-15T08:01:46;4.10;99.90
16140;DHT22;8175;49.326;12.690;2022-11-15T08:04:12;4.10;99.90
16140;DHT22;8175;49.326;12.690;2022-11-15T08:06:38;4.10;99.90
16140;DHT22;8175;49.326;12.690;2022-11-15T08:09:03;4.10;99.90
16140;DHT22;8175;49.326;12.690;2022-11-15T08:11:29;4.10;99.90
16140;DHT22;8175;49.326;12.690;2022-11-15T08:13:55;4.20;99.90
16140;DHT22;8175;49.326;12.690;2022-11-15T08:16:20;4.20;99.90
16140;DHT22;8175;49.326;12.690;2022-11-15T08:18:46;4.20;99.90
16140;DHT22;8175;49.326;12.690;2022-11-15T08:21:19;4.30;99.90
16140;DHT22;8175;49.326;12.690;2022-11-15T08:23:45;4.50;99.90
16140;DHT22;8175;49.326;12.690;2022-11-15T08:26:10;4.60;99.90
16140;DHT22;8175;49.326;12.690;2022-11-15T08:28:36;4.60;99.90
16140;DHT22;8175;49.326;12.690;2022-11-15T08:31:03;4.80;99.90
16140;DHT22;8175;49.326;12.690;2022-11-15T08:33:29;5.00;99.90
16140;DHT22;8175;49.326;12.690;2022-11-15T08:36:01;5.20;99.90
16140;DHT22;8175;49.326;12.690;2022-11-15T08:38:27;5.50;99.90
16140;DHT22;8175;49.326;12.690;2022-11-15T08:41:01;5.70;99.90
16140;DHT22;8175;49.326;12.690;2022-11-15T08:43:27;5.90;99.90
16140;DHT22;8175;49.326;12.690;2022-11-15T08:45:56;6.10;99.90
16140;DHT22;8175;49.326;12.690;2022-11-15T08:48:22;6.40;99.90
16140;DHT22;8175;49.326;12.690;2022-11-15T08:50:48;6.60;99.90
16140;DHT22;8175;49.326;12.690;2022-11-15T08:53:14;6.70;99.90
16140;DHT22;8175;49.326;12.690;2022-11-15T08:55:40;6.90;99.90
16140;DHT22;8175;49.326;12.690;2022-11-15T08:58:06;7.40;99.90
16140;DHT22;8175;49.326;12.690;2022-11-15T09:00:32;7.90;99.90
16140;DHT22;8175;49.326;12.690;2022-11-15T09:02:58;8.40;99.90
16140;DHT22;8175;49.326;12.690;2022-11-15T09:05:25;8.90;99.90
16140;DHT22;8175;49.326;12.690;2022-11-15T09:07:54;9.80;99.90
16140;DHT22;8175;49.326;12.690;2022-11-15T09:10:20;11.50;99.90
16140;DHT22;8175;49.326;12.690;2022-11-15T09:12:46;13.10;99.90
16140;DHT22;8175;49.326;12.690;2022-11-15T09:15:14;14.40;99.90
16140;DHT22;8175;49.326;12.690;2022-11-15T09:17:40;15.30;99.90
16140;DHT22;8175;49.326;12.690;2022-11-15T09:20:06;16.30;99.90
16140;DHT22;8175;49.326;12.690;2022-11-15T09:22:32;17.50;99.90
16140;DHT22;8175;49.326;12.690;2022-11-15T09:24:58;18.50;99.90
16140;DHT22;8175;49.326;12.690;2022-11-15T09:27:28;18.50;97.10
16140;DHT22;8175;49.326;12.690;2022-11-15T09:29:53;18.70;97.50
16140;DHT22;8175;49.326;12.690;2022-11-15T09:32:19;19.20;95.20
16140;DHT22;8175;49.326;12.690;2022-11-15T09:34:44;18.90;92.90
16140;DHT22;8175;49.326;12.690;2022-11-15T09:37:10;18.90;91.30
16140;DHT22;8175;49.326;12.690;2022-11-15T09:39:37;19.60;92.20
16140;DHT22;8175;49.326;12.690;2022-11-15T09:47:43;21.70;84.10
16140;DHT22;8175;49.326;12.690;2022-11-15T09:50:20;22.90;78.40
16140;DHT22;8175;49.326;12.690;2022-11-15T09:52:52;23.00;73.40
16140;DHT22;8175;49.326;12.690;2022-11-15T09:55:34;23.30;73.30
16140;DHT22;8175;49.326;12.690;2022-11-15T09:58:15;22.80;73.60
16140;DHT22;8175;49.326;12.690;2022-11-15T10:00:47;22.10;75.50
16140;DHT22;8175;49.326;12.690;2022-11-15T10:03:16;21.00;78.30
16140;DHT22;8175;49.326;12.690;2022-11-15T10:05:44;21.30;78.80
16140;DHT22;8175;49.326;12.690;2022-11-15T10:11:09;21.80;74.80
16140;DHT22;8175;49.326;12.690;2022-11-15T10:13:41;22.20;72.20
16140;DHT22;8175;49.326;12.690;2022-11-15T10:22:16;21.20;72.20
16140;DHT22;8175;49.326;12.690;2022-11-15T10:24:45;21.30;71.90
16140;DHT22;8175;49.326;12.690;2022-11-15T10:27:14;21.50;69.80
16140;DHT22;8175;49.326;12.690;2022-11-15T10:29:48;20.80;72.30
16140;DHT22;8175;49.326;12.690;2022-11-15T10:32:15;20.40;73.60
16140;DHT22;8175;49.326;12.690;2022-11-15T10:34:42;19.50;73.30
16140;DHT22;8175;49.326;12.690;2022-11-15T10:37:07;19.10;73.40
16140;DHT22;8175;49.326;12.690;2022-11-15T10:39:33;19.50;75.90
16140;DHT22;8175;49.326;12.690;2022-11-15T10:42:28;19.10;75.10
16140;DHT22;8175;49.326;12.690;2022-11-15T10:44:54;20.00;75.10
16140;DHT22;8175;49.326;12.690;2022-11-15T10:47:25;21.20;71.40
16140;DHT22;8175;49.326;12.690;2022-11-15T10:50:00;21.80;70.00
16140;DHT22;8175;49.326;12.690;2022-11-15T10:52:26;22.50;66.50
16140;DHT22;8175;49.326;12.690;2022-11-15T10:54:56;22.60;66.90
16140;DHT22;8175;49.326;12.690;2022-11-15T10:57:29;22.30;67.40
16140;DHT22;8175;49.326;12.690;2022-11-15T11:02:57;21.50;68.60
16140;DHT22;8175;49.326;12.690;2022-11-15T11:05:37;21.50;66.60
16140;DHT22;8175;49.326;12.690;2022-11-15T11:10:54;21.50;68.70
16140;DHT22;8175;49.326;12.690;2022-11-15T11:18:49;20.80;71.80
16140;DHT22;8175;49.326;12.690;2022-11-15T11:21:30;20.40;71.00
16140;DHT22;8175;49.326;12.690;2022-11-15T11:24:08;19.80;72.10
16140;DHT22;8175;49.326;12.690;2022-11-15T11:26:59;20.40;74.90
16140;DHT22;8175;49.326;12.690;2022-11-15T11:29:38;20.70;69.70
16140;DHT22;8175;49.326;12.690;2022-11-15T11:40:35;21.60;73.10
16140;DHT22;8175;49.326;12.690;2022-11-15T11:51:28;22.90;65.50
16140;DHT22;8175;49.326;12.690;2022-11-15T11:54:06;22.80;65.10
16140;DHT22;8175;49.326;12.690;2022-11-15T11:56:37;23.10;64.50
16140;DHT22;8175;49.326;12.690;2022-11-15T12:04:51;20.90;68.00
16140;DHT22;8175;49.326;12.690;2022-11-15T12:07:25;20.50;70.00
16140;DHT22;8175;49.326;12.690;2022-11-15T12:10:11;20.50;70.20
16140;DHT22;8175;49.326;12.690;2022-11-15T12:12:48;20.50;70.00
16140;DHT22;8175;49.326;12.690;2022-11-15T12:15:24;20.90;68.90
16140;DHT22;8175;49.326;12.690;2022-11-15T12:17:52;21.20;67.70
16140;DHT22;8175;49.326;12.690;2022-11-15T12:20:20;21.30;68.40
16140;DHT22;8175;49.326;12.690;2022-11-15T12:28:41;21.80;68.20
16140;DHT22;8175;49.326;12.690;2022-11-15T12:34:13;21.80;69.00
16140;DHT22;8175;49.326;12.690;2022-11-15T12:36:42;21.90;68.30
16140;DHT22;8175;49.326;12.690;2022-11-15T12:39:13;21.70;68.30
16140;DHT22;8175;49.326;12.690;2022-11-15T12:41:44;21.10;68.70
16140;DHT22;8175;49.326;12.690;2022-11-15T13:02:42;20.60;71.30
16140;DHT22;8175;49.326;12.690;2022-11-15T13:17:43;19.90;73.10
16140;DHT22;8175;49.326;12.690;2022-11-15T13:33:24;20.10;74.20
16140;DHT22;8175;49.326;12.690;2022-11-15T13:35:53;19.30;75.20
16140;DHT22;8175;49.326;12.690;2022-11-15T13:38:31;18.70;76.80
16140;DHT22;8175;49.326;12.690;2022-11-15T13:40:58;18.30;77.30
16140;DHT22;8175;49.326;12.690;2022-11-15T13:43:36;17.90;78.90
16140;DHT22;8175;49.326;12.690;2022-11-15T13:56:40;17.50;80.60
16140;DHT22;8175;49.326;12.690;2022-11-15T13:59:33;17.60;81.40
16140;DHT22;8175;49.326;12.690;2022-11-15T14:02:01;17.70;80.80
16140;DHT22;8175;49.326;12.690;2022-11-15T14:04:29;17.60;80.90
16140;DHT22;8175;49.326;12.690;2022-11-15T14:06:59;17.20;82.10
16140;DHT22;8175;49.326;12.690;2022-11-15T14:11:57;16.50;83.20
16140;DHT22;8175;49.326;12.690;2022-11-15T14:14:27;16.30;83.70
16140;DHT22;8175;49.326;12.690;2022-11-15T14:16:55;15.60;85.40
16140;DHT22;8175;49.326;12.690;2022-11-15T14:24:34;13.90;92.00
16140;DHT22;8175;49.326;12.690;2022-11-15T14:27:35;13.10;94.20
16140;DHT22;8175;49.326;12.690;2022-11-15T14:30:01;12.30;96.80
16140;DHT22;8175;49.326;12.690;2022-11-15T14:32:29;11.90;99.90
16140;DHT22;8175;49.326;12.690;2022-11-15T14:35:00;11.50;99.90
16140;DHT22;8175;49.326;12.690;2022-11-15T14:37:31;10.90;99.90
16140;DHT22;8175;49.326;12.690;2022-11-15T14:39:59;10.30;99.90
16140;DHT22;8175;49.326;12.690;2022-11-15T14:42:25;9.70;99.90
16140;DHT22;8175;49.326;12.690;2022-11-15T14:44:51;9.30;99.90
16140;DHT22;8175;49.326;12.690;2022-11-15T14:47:17;9.00;99.90
16140;DHT22;8175;49.326;12.690;2022-11-15T14:49:43;8.70;99.90
16140;DHT22;8175;49.326;12.690;2022-11-15T14:54:50;8.20;99.90
16140;DHT22;8175;49.326;12.690;2022-11-15T14:57:16;7.90;99.90
16140;DHT22;8175;49.326;12.690;2022-11-15T14:59:41;7.70;99.90
16140;DHT22;8175;49.326;12.690;2022-11-15T15:02:33;7.40;99.90
16140;DHT22;8175;49.326;12.690;2022-11-15T15:04:59;7.00;99.90
16140;DHT22;8175;49.326;12.690;2022-11-15T15:07:27;6.70;99.90
16140;DHT22;8175;49.326;12.690;2022-11-15T15:09:53;6.40;99.90
16140;DHT22;8175;49.326;12.690;2022-11-15T15:12:23;6.10;99.90
16140;DHT22;8175;49.326;12.690;2022-11-15T15:14:50;5.80;99.90
16140;DHT22;8175;49.326;12.690;2022-11-15T15:17:17;5.50;99.90
16140;DHT22;8175;49.326;12.690;2022-11-15T15:19:43;5.30;99.90
16140;DHT22;8175;49.326;12.690;2022-11-15T15:22:19;5.10;99.90
16140;DHT22;8175;49.326;12.690;2022-11-15T15:24:47;4.90;99.90
16140;DHT22;8175;49.326;12.690;2022-11-15T15:27:13;4.80;99.90
16140;DHT22;8175;49.326;12.690;2022-11-15T15:29:39;4.60;99.90
16140;DHT22;8175;49.326;12.690;2022-11-15T15:32:05;4.40;99.90
16140;DHT22;8175;49.326;12.690;2022-11-15T15:34:31;4.30;99.90
16140;DHT22;8175;49.326;12.690;2022-11-15T15:37:21;4.10;99.90
16140;DHT22;8175;49.326;12.690;2022-11-15T15:39:54;3.90;99.90
16140;DHT22;8175;49.326;12.690;2022-11-15T15:42:21;3.70;99.90
16140;DHT22;8175;49.326;12.690;2022-11-15T15:44:48;3.60;99.90
16140;DHT22;8175;49.326;12.690;2022-11-15T15:47:19;3.40;99.90
16140;DHT22;8175;49.326;12.690;2022-11-15T15:49:45;3.30;99.90
16140;DHT22;8175;49.326;12.690;2022-11-15T15:52:11;3.20;99.90
16140;DHT22;8175;49.326;12.690;2022-11-15T15:54:37;3.10;99.90
16140;DHT22;8175;49.326;12.690;2022-11-15T15:57:03;3.00;99.90
16140;DHT22;8175;49.326;12.690;2022-11-15T15:59:30;2.90;99.90
16140;DHT22;8175;49.326;12.690;2022-11-15T16:01:56;2.70;99.90
16140;DHT22;8175;49.326;12.690;2022-11-15T16:04:22;2.60;99.90
16140;DHT22;8175;49.326;12.690;2022-11-15T16:06:48;2.60;99.90
16140;DHT22;8175;49.326;12.690;2022-11-15T16:09:18;2.50;99.90
16140;DHT22;8175;49.326;12.690;2022-11-15T16:12:04;2.50;99.90
16140;DHT22;8175;49.326;12.690;2022-11-15T16:14:31;2.40;99.90
16140;DHT22;8175;49.326;12.690;2022-11-15T16:16:57;2.50;99.90
16140;DHT22;8175;49.326;12.690;2022-11-15T16:19:22;2.40;99.90
16140;DHT22;8175;49.326;12.690;2022-11-15T16:21:48;2.40;99.90
16140;DHT22;8175;49.326;12.690;2022-11-15T16:24:14;2.20;99.90
16140;DHT22;8175;49.326;12.690;2022-11-15T16:26:39;2.10;99.90
16140;DHT22;8175;49.326;12.690;2022-11-15T16:29:05;2.00;99.90
16140;DHT22;8175;49.326;12.690;2022-11-15T16:31:32;1.90;99.90
16140;DHT22;8175;49.326;12.690;2022-11-15T16:33:58;2.00;99.90
16140;DHT22;8175;49.326;12.690;2022-11-15T16:36:27;1.90;99.90
16140;DHT22;8175;49.326;12.690;2022-11-15T16:38:54;1.90;99.90
16140;DHT22;8175;49.326;12.690;2022-11-15T16:41:20;1.80;99.90
16140;DHT22;8175;49.326;12.690;2022-11-15T16:43:46;1.80;99.90
16140;DHT22;8175;49.326;12.690;2022-11-15T16:46:20;1.80;99.90
16140;DHT22;8175;49.326;12.690;2022-11-15T16:48:47;1.70;99.90
16140;DHT22;8175;49.326;12.690;2022-11-15T16:51:13;1.70;99.90
16140;DHT22;8175;49.326;12.690;2022-11-15T16:53:39;1.60;99.90
16140;DHT22;8175;49.326;12.690;2022-11-15T16:56:18;1.60;99.90
16140;DHT22;8175;49.326;12.690;2022-11-15T16:58:45;1.60;99.90
16140;DHT22;8175;49.326;12.690;2022-11-15T17:01:26;1.60;99.90
16140;DHT22;8175;49.326;12.690;2022-11-15T17:03:52;1.60;99.90
16140;DHT22;8175;49.326;12.690;2022-11-15T17:06:18;1.60;99.90
16140;DHT22;8175;49.326;12.690;2022-11-15T17:08:45;1.60;99.90
16140;DHT22;8175;49.326;12.690;2022-11-15T17:11:19;1.50;99.90
16140;DHT22;8175;49.326;12.690;2022-11-15T17:13:46;1.50;99.90
16140;DHT22;8175;49.326;12.690;2022-11-15T17:16:15;1.50;99.90
16140;DHT22;8175;49.326;12.690;2022-11-15T17:18:41;1.50;99.90
16140;DHT22;8175;49.326;12.690;2022-11-15T17:21:14;1.40;99.90
16140;DHT22;8175;49.326;12.690;2022-11-15T17:23:40;1.30;99.90
16140;DHT22;8175;49.326;12.690;2022-11-15T17:26:07;1.30;99.90
16140;DHT22;8175;49.326;12.690;2022-11-15T17:28:34;1.30;99.90
16140;DHT22;8175;49.326;12.690;2022-11-15T17:31:00;1.30;99.90
16140;DHT22;8175;49.326;12.690;2022-11-15T17:33:26;1.30;99.90
16140;DHT22;8175;49.326;12.690;2022-11-15T17:35:59;1.30;99.90
16140;DHT22;8175;49.326;12.690;2022-11-15T17:38:25;1.20;99.90
16140;DHT22;8175;49.326;12.690;2022-11-15T17:41:14;1.20;99.90
16140;DHT22;8175;49.326;12.690;2022-11-15T17:43:40;1.30;99.90
16140;DHT22;8175;49.326;12.690;2022-11-15T17:46:08;1.30;99.90
16140;DHT22;8175;49.326;12.690;2022-11-15T17:48:35;1.20;99.90
16140;DHT22;8175;49.326;12.690;2022-11-15T17:51:03;1.10;99.90
16140;DHT22;8175;49.326;12.690;2022-11-15T17:53:34;1.10;99.90
16140;DHT22;8175;49.326;12.690;2022-11-15T17:56:07;1.10;99.90
16140;DHT22;8175;49.326;12.690;2022-11-15T17:58:33;1.20;99.90
16140;DHT22;8175;49.326;12.690;2022-11-15T18:01:21;1.20;99.90
16140;DHT22;8175;49.326;12.690;2022-11-15T18:03:47;1.20;99.90
16140;DHT22;8175;49.326;12.690;2022-11-15T18:06:14;1.30;99.90
16140;DHT22;8175;49.326;12.690;2022-11-15T18:08:41;1.30;99.90
16140;DHT22;8175;49.326;12.690;2022-11-15T18:11:16;1.40;99.90
16140;DHT22;8175;49.326;12.690;2022-11-15T18:13:44;1.40;99.90
16140;DHT22;8175;49.326;12.690;2022-11-15T18:16:13;1.40;99.90
16140;DHT22;8175;49.326;12.690;2022-11-15T18:18:39;1.60;99.90
16140;DHT22;8175;49.326;12.690;2022-11-15T18:21:16;1.50;99.90
16140;DHT22;8175;49.326;12.690;2022-11-15T18:23:47;1.40;99.90